Time;durP1;ratioP1;P1;durP2;ratioP2;P2;SDS_P1;SDS_P2;PMS_P1;PMS_P2;Temp;Humidity;BMP_temperature;BMP_pressure;BME280_temperature;BME280_humidity;BME280_pressure;Samples;Min_cycle;Max_cycle;Signal;HPM_P1;HPM_P2
2021/10/01 00:01:07;;;;;;;2.30;0.68;;;20.70;59.30;;;;;;4936082;28;90317;-76
2021/10/01 00:03:32;;;;;;;1.85;0.60;;;20.70;59.40;;;;;;4935745;28;87760;-77
2021/10/01 00:05:58;;;;;;;1.45;0.50;;;20.70;59.40;;;;;;4937016;28;87948;-76
2021/10/01 00:08:24;;;;;;;1.65;0.55;;;20.70;59.40;;;;;;4936763;28;87145;-80
2021/10/01 00:10:50;;;;;;;2.22;0.55;;;20.70;59.50;;;;;;4937746;28;88714;-79
2021/10/01 00:13:16;;;;;;;1.55;0.45;;;20.70;59.50;;;;;;4952875;28;87157;-77
2021/10/01 00:15:43;;;;;;;2.92;0.55;;;20.70;59.50;;;;;;4936598;28;87729;-72
2021/10/01 00:18:11;;;;;;;1.23;0.45;;;20.60;59.50;;;;;;4935302;28;88940;-80
2021/10/01 00:20:37;;;;;;;0.93;0.60;;;20.60;59.50;;;;;;4936161;28;87323;-78
2021/10/01 00:23:02;;;;;;;0.98;0.43;;;20.60;59.50;;;;;;4935297;28;88366;-81
2021/10/01 00:25:28;;;;;;;1.77;0.75;;;20.60;59.60;;;;;;4936992;28;87199;-73
2021/10/01 00:27:54;;;;;;;0.85;0.50;;;20.60;59.70;;;;;;4935480;28;89116;-73
2021/10/01 00:30:20;;;;;;;1.52;0.45;;;20.60;59.60;;;;;;4937184;28;88319;-73
2021/10/01 00:32:46;;;;;;;0.93;0.50;;;20.60;59.70;;;;;;4952028;28;88011;-84
2021/10/01 00:35:12;;;;;;;2.00;0.60;;;20.60;59.70;;;;;;4936988;28;87680;-85
2021/10/01 00:37:37;;;;;;;1.00;0.40;;;20.60;59.70;;;;;;4934941;28;87768;-86
2021/10/01 00:40:04;;;;;;;2.55;0.50;;;20.60;59.70;;;;;;4934993;28;87473;-76
2021/10/01 00:42:30;;;;;;;0.98;0.40;;;20.60;59.70;;;;;;4935377;28;87666;-77
2021/10/01 00:44:56;;;;;;;1.10;0.45;;;20.60;59.80;;;;;;4934374;28;87692;-78
2021/10/01 00:47:22;;;;;;;1.92;0.45;;;20.60;59.80;;;;;;4934496;28;88583;-84
2021/10/01 00:49:47;;;;;;;2.08;0.60;;;20.60;59.80;;;;;;4937245;28;87424;-86
2021/10/01 00:52:17;;;;;;;2.20;0.50;;;20.60;59.90;;;;;;4937341;28;87783;-83
2021/10/01 00:54:43;;;;;;;0.98;0.60;;;20.60;59.80;;;;;;4937507;28;87112;-84
2021/10/01 00:57:09;;;;;;;3.50;1.00;;;20.60;59.90;;;;;;4937454;28;88397;-88
2021/10/01 00:59:35;;;;;;;1.70;0.57;;;20.50;59.80;;;;;;4936460;28;87547;-88
2021/10/01 01:02:00;;;;;;;1.35;0.50;;;20.50;59.90;;;;;;4937391;28;87527;-83
2021/10/01 01:04:26;;;;;;;1.25;0.50;;;20.60;59.90;;;;;;4937277;28;87547;-79
2021/10/01 01:07:00;;;;;;;1.58;0.60;;;20.50;59.90;;;;;;4952232;28;90419;-87
2021/10/01 01:09:27;;;;;;;;;;;20.50;59.90;;;;;;4935922;28;88470;-87
2021/10/01 01:12:25;;;;;;;2.33;0.40;;;20.50;60.00;;;;;;4937831;28;88033;-88
2021/10/01 01:14:57;;;;;;;1.33;0.50;;;20.50;60.00;;;;;;4933748;28;87579;-88
2021/10/01 01:17:33;;;;;;;1.73;0.75;;;20.50;60.00;;;;;;4935164;28;89137;-89
2021/10/01 01:20:10;;;;;;;1.83;0.50;;;20.50;60.00;;;;;;4935533;28;87227;-89
2021/10/01 01:22:51;;;;;;;2.90;0.63;;;20.50;60.10;;;;;;4936079;28;87757;-88
2021/10/01 01:25:40;;;;;;;1.33;0.57;;;20.50;60.10;;;;;;4936025;28;88089;-89
2021/10/01 01:28:17;;;;;;;1.80;0.80;;;20.50;60.10;;;;;;4899143;28;87537;-89
2021/10/01 01:30:48;;;;;;;0.85;0.50;;;20.50;60.20;;;;;;4937673;28;87437;-88
2021/10/01 01:33:20;;;;;;;1.08;0.43;;;20.50;60.20;;;;;;4938866;28;87648;-88
2021/10/01 01:35:46;;;;;;;1.38;0.40;;;20.50;60.20;;;;;;4938101;28;87491;-81
2021/10/01 01:38:17;;;;;;;1.27;0.40;;;20.50;60.20;;;;;;4937025;28;89165;-88
2021/10/01 01:40:54;;;;;;;1.05;0.60;;;20.50;60.30;;;;;;4937197;28;87898;-87
2021/10/01 01:43:20;;;;;;;0.73;0.50;;;20.40;60.30;;;;;;4937761;28;87272;-86
2021/10/01 01:45:47;;;;;;;0.82;0.35;;;20.40;60.30;;;;;;4938011;28;87386;-82
2021/10/01 01:48:14;;;;;;;1.38;0.60;;;20.40;60.30;;;;;;4939223;28;88226;-86
2021/10/01 01:50:40;;;;;;;1.73;0.52;;;20.40;60.40;;;;;;4938617;28;87603;-87
2021/10/01 01:53:08;;;;;;;1.33;0.45;;;20.40;60.40;;;;;;4937758;28;87374;-79
2021/10/01 01:55:35;;;;;;;2.25;0.50;;;20.40;60.50;;;;;;4937720;28;87298;-87
2021/10/01 01:58:01;;;;;;;2.10;0.60;;;20.40;60.50;;;;;;4937713;28;87847;-88
2021/10/01 02:00:28;;;;;;;0.82;0.30;;;20.40;60.50;;;;;;4937460;28;87498;-89
2021/10/01 02:02:57;;;;;;;1.45;0.50;;;20.40;60.60;;;;;;4935342;28;88736;-75
2021/10/01 02:05:24;;;;;;;1.15;0.40;;;20.40;60.60;;;;;;4937125;28;87576;-85
2021/10/01 02:07:53;;;;;;;1.40;0.50;;;20.40;60.60;;;;;;4936564;28;87505;-87
2021/10/01 02:10:20;;;;;;;2.15;0.52;;;20.40;60.60;;;;;;4935183;28;87270;-88
2021/10/01 02:12:51;;;;;;;1.92;0.50;;;20.40;60.60;;;;;;4936101;28;87589;-84
2021/10/01 02:15:19;;;;;;;0.75;0.50;;;20.40;60.60;;;;;;4937006;28;86912;-85
2021/10/01 02:17:47;;;;;;;2.65;0.50;;;20.40;60.60;;;;;;4935832;28;87675;-88
2021/10/01 02:20:15;;;;;;;0.93;0.50;;;20.40;60.60;;;;;;4936216;28;87384;-77
2021/10/01 02:22:41;;;;;;;1.20;0.52;;;20.40;60.70;;;;;;4935211;28;87354;-85
2021/10/01 02:26:33;;;;;;;0.82;0.40;;;20.40;60.70;;;;;;4936229;28;87442;-88
2021/10/01 02:27:56;;;;;;;2.35;0.70;;;20.40;60.70;;;;;;4935979;28;88508;-80
2021/10/01 02:30:23;;;;;;;1.02;0.47;;;20.40;60.80;;;;;;4935400;28;88333;-87
2021/10/01 02:33:20;;;;;;;1.08;0.40;;;20.40;60.80;;;;;;4936762;28;87838;-72
2021/10/01 02:35:46;;;;;;;0.95;0.30;;;20.40;60.80;;;;;;4932017;28;87660;-83
2021/10/01 02:38:12;;;;;;;1.45;0.50;;;20.40;60.80;;;;;;4934693;28;88522;-83
2021/10/01 02:40:37;;;;;;;1.25;0.60;;;20.30;60.80;;;;;;4935258;28;88024;-86
2021/10/01 02:43:03;;;;;;;0.85;0.40;;;20.40;60.90;;;;;;4935753;28;87536;-87
2021/10/01 02:45:29;;;;;;;1.48;0.50;;;20.30;60.80;;;;;;4934790;28;86501;-88
2021/10/01 02:47:54;;;;;;;1.27;0.50;;;20.30;60.90;;;;;;4933946;28;87793;-81
2021/10/01 02:50:22;;;;;;;0.60;0.45;;;20.30;60.90;;;;;;4932772;28;87983;-85
2021/10/01 02:52:50;;;;;;;2.08;0.60;;;20.30;61.00;;;;;;4933608;28;89013;-82
2021/10/01 02:55:20;;;;;;;0.82;0.40;;;20.30;61.00;;;;;;4933971;28;87996;-77
2021/10/01 02:57:59;;;;;;;1.48;0.60;;;20.30;61.00;;;;;;4932773;28;88493;-80
2021/10/01 03:00:25;;;;;;;0.85;0.30;;;20.30;61.60;;;;;;4933426;28;88115;-73
2021/10/01 03:02:54;;;;;;;0.90;0.50;;;20.30;61.00;;;;;;4937025;28;87520;-74
2021/10/01 03:08:05;;;;;;;1.70;0.55;;;20.30;61.10;;;;;;4940461;28;88199;-79
2021/10/01 03:10:32;;;;;;;0.93;0.40;;;20.30;61.70;;;;;;4950359;28;87818;-78
2021/10/01 03:12:59;;;;;;;1.35;0.55;;;20.30;61.20;;;;;;4952642;28;87873;-77
2021/10/01 03:15:27;;;;;;;1.73;0.40;;;20.30;61.20;;;;;;4942628;28;88043;-79
2021/10/01 03:17:53;;;;;;;0.73;0.40;;;20.30;61.50;;;;;;4953379;28;89150;-78
2021/10/01 03:20:20;;;;;;;3.92;0.82;;;20.30;61.40;;;;;;4955907;28;88406;-79
2021/10/01 03:22:46;;;;;;;3.10;0.50;;;20.30;61.50;;;;;;4953661;28;88019;-79
2021/10/01 03:25:12;;;;;;;1.98;0.40;;;20.30;61.50;;;;;;4952431;28;88060;-77
2021/10/01 03:27:38;;;;;;;2.08;0.40;;;20.30;61.50;;;;;;4953143;28;88389;-77
2021/10/01 03:30:07;;;;;;;0.75;0.35;;;20.20;61.50;;;;;;4951457;28;90366;-77
2021/10/01 03:32:33;;;;;;;1.38;0.60;;;20.30;61.60;;;;;;4944156;28;87992;-76
2021/10/01 03:35:02;;;;;;;2.38;0.30;;;20.20;61.50;;;;;;4955011;28;87045;-79
2021/10/01 03:37:30;;;;;;;1.20;0.50;;;20.20;61.60;;;;;;4944568;28;90182;-78
2021/10/01 03:40:04;;;;;;;0.70;0.38;;;20.20;61.60;;;;;;4953794;28;87759;-79
2021/10/01 03:42:30;;;;;;;1.33;0.55;;;20.20;61.60;;;;;;4953004;28;88009;-79
2021/10/01 03:44:56;;;;;;;1.90;0.40;;;20.20;61.60;;;;;;4944362;28;89361;-79
2021/10/01 03:47:21;;;;;;;1.13;0.50;;;20.20;61.60;;;;;;4946273;28;90873;-79
2021/10/01 03:49:47;;;;;;;0.98;0.30;;;20.20;61.60;;;;;;4969531;28;89826;-79
2021/10/01 03:52:13;;;;;;;1.73;0.70;;;20.20;61.60;;;;;;4958741;28;87637;-78
2021/10/01 03:54:42;;;;;;;5.80;0.60;;;20.20;61.70;;;;;;4955705;28;89331;-79
2021/10/01 03:57:07;;;;;;;1.83;0.40;;;20.20;61.70;;;;;;4955908;28;88585;-79
2021/10/01 03:59:33;;;;;;;2.03;0.57;;;20.20;61.70;;;;;;4957536;28;87892;-77
2021/10/01 04:01:59;;;;;;;1.33;0.47;;;20.20;61.70;;;;;;4957774;28;87246;-78
2021/10/01 04:04:25;;;;;;;1.95;0.60;;;20.20;61.80;;;;;;4957492;28;88178;-79
2021/10/01 04:06:51;;;;;;;0.70;0.32;;;20.20;61.80;;;;;;4956411;28;89120;-77
2021/10/01 04:09:16;;;;;;;1.17;0.45;;;20.20;61.80;;;;;;4955543;28;88813;-79
2021/10/01 04:11:44;;;;;;;1.30;0.45;;;20.20;61.80;;;;;;4957419;28;87507;-79
2021/10/01 04:14:09;;;;;;;0.75;0.50;;;20.20;61.80;;;;;;4932548;28;89624;-78
2021/10/01 04:16:35;;;;;;;1.05;0.47;;;20.20;61.80;;;;;;4955538;28;88127;-80
2021/10/01 04:19:01;;;;;;;1.00;0.43;;;20.10;61.80;;;;;;4954847;28;89570;-78
2021/10/01 04:21:29;;;;;;;1.25;0.40;;;20.20;61.90;;;;;;4953111;28;87997;-76
2021/10/01 04:23:55;;;;;;;0.52;0.30;;;20.20;61.90;;;;;;4947641;28;89032;-77
2021/10/01 04:26:21;;;;;;;2.72;0.40;;;20.10;61.90;;;;;;4955543;28;87909;-78
2021/10/01 04:28:46;;;;;;;2.45;0.50;;;20.10;61.80;;;;;;4941919;28;91785;-77
2021/10/01 04:31:12;;;;;;;0.85;0.40;;;20.10;61.90;;;;;;4946880;28;89164;-77
2021/10/01 04:33:41;;;;;;;0.98;0.50;;;20.20;61.90;;;;;;4955194;28;87630;-77
2021/10/01 04:36:07;;;;;;;1.27;0.30;;;20.10;61.90;;;;;;4945557;28;90488;-77
2021/10/01 04:38:33;;;;;;;1.83;0.55;;;20.10;61.90;;;;;;4954149;28;89815;-78
2021/10/01 04:41:00;;;;;;;1.17;0.50;;;20.10;61.90;;;;;;4958919;28;87609;-78
2021/10/01 04:43:27;;;;;;;1.42;0.40;;;20.10;61.90;;;;;;4953596;28;87782;-78
2021/10/01 04:45:53;;;;;;;0.88;0.45;;;20.10;61.90;;;;;;4954681;28;87804;-78
2021/10/01 04:48:18;;;;;;;1.88;0.60;;;20.10;61.90;;;;;;4955703;28;88305;-77
2021/10/01 04:50:44;;;;;;;1.75;0.30;;;20.10;61.90;;;;;;4955299;28;87434;-77
2021/10/01 04:53:12;;;;;;;1.02;0.43;;;20.10;61.90;;;;;;4954708;28;88000;-77
2021/10/01 04:55:38;;;;;;;1.02;0.40;;;20.10;61.90;;;;;;4953514;28;88912;-78
2021/10/01 04:58:05;;;;;;;0.95;0.40;;;20.10;61.90;;;;;;4953686;28;88426;-77
2021/10/01 05:00:31;;;;;;;0.75;0.40;;;20.10;61.90;;;;;;4950295;28;87930;-76
2021/10/01 05:02:57;;;;;;;0.77;0.40;;;20.10;62.00;;;;;;4952880;28;87709;-78
2021/10/01 05:05:23;;;;;;;1.35;0.50;;;20.10;62.00;;;;;;4952789;28;87962;-77
2021/10/01 05:07:52;;;;;;;1.77;0.40;;;20.10;62.00;;;;;;4952931;28;87851;-77
2021/10/01 05:10:19;;;;;;;0.82;0.40;;;20.10;62.00;;;;;;4942122;28;87336;-77
2021/10/01 05:12:45;;;;;;;0.93;0.47;;;20.10;62.00;;;;;;4954024;28;87255;-78
2021/10/01 05:15:12;;;;;;;0.85;0.35;;;20.10;62.00;;;;;;4952407;28;88230;-80
2021/10/01 05:17:39;;;;;;;2.13;0.63;;;20.10;62.00;;;;;;4954505;28;87755;-77
2021/10/01 05:20:07;;;;;;;1.33;0.40;;;20.10;62.10;;;;;;4952460;28;89166;-78
2021/10/01 05:22:33;;;;;;;1.13;0.50;;;20.10;62.00;;;;;;4951063;28;90951;-77
2021/10/01 05:24:59;;;;;;;2.40;0.47;;;20.10;62.00;;;;;;4952116;28;87989;-77
2021/10/01 05:27:25;;;;;;;1.40;0.40;;;20.10;62.00;;;;;;4951482;28;90211;-76
2021/10/01 05:29:51;;;;;;;1.15;0.43;;;20.10;62.00;;;;;;4951167;28;87341;-78
2021/10/01 05:32:16;;;;;;;0.50;0.30;;;20.00;62.00;;;;;;4952477;28;87522;-77
2021/10/01 05:34:42;;;;;;;1.10;0.52;;;20.00;62.00;;;;;;4952521;28;87742;-77
2021/10/01 05:37:08;;;;;;;1.92;0.40;;;20.10;62.10;;;;;;4953832;28;87364;-77
2021/10/01 05:39:34;;;;;;;0.73;0.38;;;20.10;62.10;;;;;;4953342;28;87192;-77
2021/10/01 05:41:59;;;;;;;1.08;0.40;;;20.00;62.10;;;;;;4951257;28;87505;-78
2021/10/01 05:44:26;;;;;;;1.50;0.60;;;20.00;62.00;;;;;;4941408;28;89715;-78
2021/10/01 05:46:52;;;;;;;1.48;0.35;;;20.00;62.00;;;;;;4943591;28;89842;-76
2021/10/01 05:49:27;;;;;;;1.33;0.40;;;20.00;62.00;;;;;;4952353;28;87850;-77
2021/10/01 05:52:02;;;;;;;1.05;0.40;;;20.00;62.60;;;;;;4951426;28;89705;-78
2021/10/01 05:54:27;;;;;;;0.95;0.35;;;20.00;62.10;;;;;;4953419;28;87860;-78
2021/10/01 05:56:55;;;;;;;2.15;0.35;;;20.00;62.10;;;;;;4951472;28;87918;-78
2021/10/01 05:59:22;;;;;;;1.15;0.43;;;20.00;62.10;;;;;;4952554;28;87642;-78
2021/10/01 06:01:49;;;;;;;0.68;0.40;;;20.00;62.10;;;;;;4942547;28;89311;-78
2021/10/01 06:04:15;;;;;;;0.60;0.40;;;20.00;62.10;;;;;;4941135;28;91426;-76
2021/10/01 06:06:41;;;;;;;1.65;0.30;;;20.00;62.10;;;;;;4952199;28;87588;-78
2021/10/01 06:09:13;;;;;;;0.52;0.30;;;20.00;62.10;;;;;;4953147;28;88587;-78
2021/10/01 06:11:40;;;;;;;0.70;0.30;;;20.00;62.20;;;;;;4954403;28;88040;-78
2021/10/01 06:14:07;;;;;;;0.85;0.40;;;20.00;62.20;;;;;;4953992;28;88207;-77
2021/10/01 06:16:33;;;;;;;2.35;0.35;;;20.00;62.20;;;;;;4944448;28;89052;-80
2021/10/01 06:19:00;;;;;;;1.05;0.30;;;20.00;62.20;;;;;;4953906;28;87201;-78
2021/10/01 06:21:27;;;;;;;2.20;0.43;;;20.00;62.20;;;;;;4954481;28;87687;-78
2021/10/01 06:23:52;;;;;;;0.57;0.40;;;20.00;62.30;;;;;;4945655;28;88744;-78
2021/10/01 06:26:18;;;;;;;0.98;0.43;;;20.00;62.20;;;;;;4955161;28;87932;-78
2021/10/01 06:28:44;;;;;;;1.08;0.40;;;20.00;62.20;;;;;;4941620;28;87232;-77
2021/10/01 06:31:10;;;;;;;3.20;0.57;;;20.00;62.30;;;;;;4953404;28;88080;-77
2021/10/01 06:33:35;;;;;;;1.45;0.50;;;20.00;62.90;;;;;;4952477;28;88758;-77
2021/10/01 06:36:04;;;;;;;1.25;0.40;;;20.00;62.90;;;;;;4944174;28;89639;-78
2021/10/01 06:38:31;;;;;;;2.33;0.40;;;20.00;62.80;;;;;;4965736;28;87942;-76
2021/10/01 06:40:58;;;;;;;1.35;0.45;;;20.00;62.70;;;;;;4957134;28;88029;-78
2021/10/01 06:43:26;;;;;;;4.35;0.45;;;20.00;62.50;;;;;;4956637;28;88381;-77
2021/10/01 06:45:55;;;;;;;2.33;0.38;;;20.00;62.20;;;;;;4956174;28;87905;-77
2021/10/01 06:48:50;;;;;;;2.72;0.52;;;20.00;61.90;;;;;;4958656;28;87813;-78
2021/10/01 06:51:30;;;;;;;1.98;0.60;;;20.00;61.60;;;;;;4957529;28;86855;-79
2021/10/01 07:29:30;;;;;;;8.98;1.30;;;20.00;59.40;;;;;;4950378;28;88818;-76
2021/10/01 08:18:20;;;;;;;56.38;9.93;;;20.00;61.80;;;;;;4954194;28;87194;-77
2021/10/01 08:19:05;;;;;;;19.73;4.05;;;20.00;59.80;;;;;;4953201;28;88135;-76
2021/10/01 08:21:31;;;;;;;17.92;3.47;;;20.00;59.70;;;;;;4953110;28;89128;-78
2021/10/01 08:23:59;;;;;;;13.55;3.47;;;20.00;59.60;;;;;;4944081;28;92050;-79
2021/10/01 08:26:27;;;;;;;18.20;4.13;;;20.00;59.50;;;;;;4952149;28;87739;-79
2021/10/01 08:28:53;;;;;;;18.83;4.47;;;20.00;59.50;;;;;;4954794;28;88149;-76
2021/10/01 08:31:21;;;;;;;14.35;2.72;;;20.00;59.40;;;;;;4956274;28;87875;-77
2021/10/01 08:33:47;;;;;;;16.23;3.60;;;20.00;59.30;;;;;;4955921;28;88267;-77
2021/10/01 08:36:17;;;;;;;18.67;3.13;;;20.00;59.20;;;;;;4956234;28;88094;-77
2021/10/01 08:38:44;;;;;;;13.27;2.90;;;20.00;59.10;;;;;;4956094;28;87627;-76
2021/10/01 08:41:12;;;;;;;16.92;3.22;;;20.00;59.00;;;;;;4956662;28;87519;-77
2021/10/01 08:43:42;;;;;;;13.68;2.83;;;20.00;58.90;;;;;;4954226;28;88099;-81
2021/10/01 08:46:09;;;;;;;12.13;2.65;;;20.00;58.80;;;;;;4954582;28;88614;-77
2021/10/01 08:48:36;;;;;;;12.02;2.78;;;20.00;58.80;;;;;;4958598;28;89255;-77
2021/10/01 08:51:04;;;;;;;14.68;3.03;;;20.00;58.60;;;;;;4955520;28;88724;-77
2021/10/01 08:53:31;;;;;;;9.05;2.33;;;20.00;58.50;;;;;;4955304;28;87503;-76
2021/10/01 08:55:58;;;;;;;10.85;2.47;;;20.00;58.60;;;;;;4948225;28;87712;-76
2021/10/01 08:58:25;;;;;;;8.57;1.85;;;20.00;58.50;;;;;;4947797;28;89423;-76
2021/10/01 09:00:51;;;;;;;10.48;2.40;;;20.00;58.50;;;;;;4955284;28;88222;-77
2021/10/01 09:03:20;;;;;;;6.25;1.73;;;20.00;58.40;;;;;;4954690;28;87758;-77
2021/10/01 09:05:45;;;;;;;11.57;2.22;;;20.00;58.40;;;;;;4942793;28;88159;-77
2021/10/01 09:08:24;;;;;;;6.38;2.08;;;20.10;58.40;;;;;;4952973;28;88860;-80
2021/10/01 09:11:00;;;;;;;7.45;1.80;;;20.00;58.30;;;;;;4952265;28;88718;-77
2021/10/01 09:13:26;;;;;;;6.65;2.08;;;20.00;58.20;;;;;;4951529;28;91563;-76
2021/10/01 09:16:42;;;;;;;9.40;1.83;;;20.00;58.20;;;;;;4973803;23;88872;-85
2021/10/01 09:19:40;;;;;;;5.28;1.55;;;20.10;58.10;;;;;;4926711;28;87952;-84
2021/10/01 09:22:06;;;;;;;6.05;1.55;;;20.10;58.00;;;;;;4952612;28;91208;-86
2021/10/01 09:24:32;;;;;;;6.53;1.55;;;20.10;57.90;;;;;;4950861;28;88678;-82
2021/10/01 09:26:58;;;;;;;7.82;1.58;;;20.10;57.90;;;;;;4953369;28;87770;-76
2021/10/01 09:29:27;;;;;;;5.00;1.20;;;20.10;57.90;;;;;;4950786;28;87364;-76
2021/10/01 09:31:54;;;;;;;2.97;1.25;;;20.10;57.90;;;;;;4953517;28;87694;-70
2021/10/01 09:34:23;;;;;;;7.10;1.40;;;20.10;57.90;;;;;;4951645;28;87272;-75
2021/10/01 09:37:10;;;;;;;6.13;1.25;;;20.10;57.90;;;;;;4952220;28;88727;-76
2021/10/01 09:39:40;;;;;;;5.90;1.27;;;20.10;57.90;;;;;;4952532;28;87516;-70
2021/10/01 09:42:15;;;;;;;5.50;1.42;;;20.10;57.80;;;;;;4951938;28;88965;-78
2021/10/01 09:44:45;;;;;;;6.35;1.23;;;20.10;57.80;;;;;;4951875;28;87306;-73
2021/10/01 09:47:11;;;;;;;6.30;0.98;;;20.10;57.70;;;;;;4953063;28;87447;-79
2021/10/01 09:49:36;;;;;;;4.40;1.00;;;20.10;57.60;;;;;;4953143;28;87836;-75
2021/10/01 09:52:04;;;;;;;4.78;1.38;;;20.10;57.60;;;;;;4953030;28;87663;-77
2021/10/01 09:54:30;;;;;;;4.55;1.20;;;20.10;57.50;;;;;;4953261;28;87456;-72
2021/10/01 09:57:04;;;;;;;6.18;1.30;;;20.20;57.40;;;;;;4953322;28;87385;-73
2021/10/01 09:59:30;;;;;;;4.45;1.00;;;20.20;57.40;;;;;;4953091;28;87773;-74
2021/10/01 10:02:12;;;;;;;4.28;1.38;;;20.20;57.30;;;;;;4950637;28;89630;-72
2021/10/01 10:04:43;;;;;;;5.55;1.45;;;20.20;57.30;;;;;;4950764;28;88502;-80
2021/10/01 10:07:14;;;;;;;3.45;0.93;;;20.20;57.10;;;;;;4943948;28;88281;-75
2021/10/01 10:09:53;;;;;;;4.07;0.90;;;20.20;57.10;;;;;;4943428;28;89174;-77
2021/10/01 10:12:24;;;;;;;3.30;1.30;;;20.20;57.10;;;;;;4953015;28;88059;-70
2021/10/01 10:14:53;;;;;;;2.05;0.85;;;20.20;57.00;;;;;;4951212;28;87509;-73
2021/10/01 10:17:24;;;;;;;3.20;1.00;;;20.20;57.00;;;;;;4953089;28;88087;-73
2021/10/01 10:19:52;;;;;;;3.63;1.00;;;20.20;56.90;;;;;;4950388;28;86922;-83
2021/10/01 10:22:19;;;;;;;4.30;0.80;;;20.20;57.40;;;;;;4952059;28;87678;-74
2021/10/01 10:24:46;;;;;;;4.70;0.98;;;20.20;56.70;;;;;;4952732;28;88101;-81
2021/10/01 10:27:12;;;;;;;4.72;1.23;;;20.20;56.60;;;;;;4952338;28;88237;-74
2021/10/01 10:29:44;;;;;;;1.83;0.73;;;20.20;56.60;;;;;;4952796;28;87559;-78
2021/10/01 10:32:12;;;;;;;4.00;0.80;;;20.20;56.60;;;;;;4952555;28;88269;-77
2021/10/01 10:34:52;;;;;;;4.75;0.82;;;20.20;56.50;;;;;;4952101;28;87922;-76
2021/10/01 10:37:20;;;;;;;3.03;0.70;;;20.20;56.50;;;;;;4952177;28;87485;-77
2021/10/01 10:39:52;;;;;;;3.90;0.70;;;20.20;56.50;;;;;;4953235;28;88005;-81
2021/10/01 10:42:21;;;;;;;2.13;0.60;;;20.20;56.50;;;;;;4951223;28;88788;-79
2021/10/01 10:45:02;;;;;;;2.10;0.90;;;20.20;56.50;;;;;;4953017;28;87308;-74
2021/10/01 10:47:53;;;;;;;1.83;0.60;;;20.20;56.40;;;;;;4953266;28;87579;-77
2021/10/01 10:50:29;;;;;;;2.40;0.63;;;20.30;56.40;;;;;;4951911;28;87664;-82
2021/10/01 10:53:04;;;;;;;2.97;0.90;;;20.20;56.20;;;;;;4952439;28;89769;-80
2021/10/01 10:55:32;;;;;;;1.92;0.80;;;20.20;56.20;;;;;;4951912;28;89279;-73
2021/10/01 10:57:57;;;;;;;3.10;0.88;;;20.30;56.30;;;;;;4952990;28;88008;-78
2021/10/01 11:00:42;;;;;;;1.08;0.50;;;20.20;56.20;;;;;;4950637;28;87624;-81
2021/10/01 11:03:27;;;;;;;1.95;0.68;;;20.20;56.20;;;;;;4951113;28;88382;-75
2021/10/01 11:06:19;;;;;;;2.13;0.55;;;20.30;56.30;;;;;;4950130;28;88484;-84
2021/10/01 11:08:51;;;;;;;3.03;0.55;;;20.30;56.30;;;;;;4948410;28;87700;-78
2021/10/01 11:11:29;;;;;;;2.60;0.70;;;20.20;56.20;;;;;;4953816;28;86840;-84
2021/10/01 11:14:14;;;;;;;2.28;0.80;;;20.30;56.20;;;;;;4958814;28;90811;-80
2021/10/01 11:16:40;;;;;;;2.60;0.70;;;20.30;56.10;;;;;;4952718;28;88446;-83
2021/10/01 11:19:07;;;;;;;3.65;0.70;;;20.30;56.00;;;;;;4941879;28;89118;-73
2021/10/01 11:21:43;;;;;;;2.70;0.50;;;20.30;56.00;;;;;;4954854;28;88163;-77
2021/10/01 11:24:24;;;;;;;4.78;0.80;;;20.30;56.00;;;;;;4933698;28;88746;-80
2021/10/01 11:26:52;;;;;;;2.88;0.70;;;20.30;56.00;;;;;;4955162;28;88316;-81
2021/10/01 11:29:23;;;;;;;3.90;0.70;;;20.30;55.90;;;;;;4956020;28;87676;-75
2021/10/01 11:31:53;;;;;;;2.45;0.60;;;20.30;55.90;;;;;;4962152;28;87127;-84
2021/10/01 11:34:34;;;;;;;3.85;0.77;;;20.30;55.90;;;;;;4955326;28;88541;-81
2021/10/01 11:37:00;;;;;;;3.38;0.57;;;20.30;56.00;;;;;;4955428;28;87848;-82
2021/10/01 11:39:26;;;;;;;2.28;0.70;;;20.30;56.00;;;;;;4952769;28;87773;-76
2021/10/01 11:41:51;;;;;;;1.67;0.80;;;20.30;55.90;;;;;;4952582;28;88119;-76
2021/10/01 11:44:17;;;;;;;1.73;0.60;;;20.30;55.90;;;;;;4951797;28;88572;-78
2021/10/01 11:46:48;;;;;;;2.78;0.60;;;20.30;55.80;;;;;;4952366;28;88482;-73
2021/10/01 11:49:19;;;;;;;2.92;0.70;;;20.40;55.80;;;;;;4945345;28;88200;-77
2021/10/01 11:51:57;;;;;;;1.55;0.60;;;20.40;55.80;;;;;;4951142;28;87961;-74
2021/10/01 11:54:23;;;;;;;2.03;0.60;;;20.40;55.90;;;;;;4950598;28;88083;-74
2021/10/01 11:56:58;;;;;;;2.80;0.63;;;20.40;55.90;;;;;;4951969;28;87550;-72
2021/10/01 11:59:25;;;;;;;1.45;0.60;;;20.40;55.90;;;;;;4951622;28;87689;-75
2021/10/01 12:01:58;;;;;;;2.58;0.70;;;20.40;55.90;;;;;;4952646;28;86456;-69
2021/10/01 12:04:33;;;;;;;2.78;0.82;;;20.40;55.90;;;;;;4952325;28;87645;-74
2021/10/01 12:07:04;;;;;;;2.30;0.60;;;20.40;55.90;;;;;;4953896;28;87644;-76
2021/10/01 12:09:29;;;;;;;3.65;0.63;;;20.40;55.90;;;;;;4952234;28;88350;-74
2021/10/01 12:11:55;;;;;;;2.63;0.70;;;20.40;55.80;;;;;;4953134;28;87333;-76
2021/10/01 12:14:21;;;;;;;4.35;0.70;;;20.40;55.80;;;;;;4952568;28;87797;-79
2021/10/01 12:17:07;;;;;;;1.75;0.60;;;20.40;55.80;;;;;;4952453;28;87867;-77
2021/10/01 12:19:33;;;;;;;2.08;0.60;;;20.40;55.80;;;;;;4952797;28;87433;-74
2021/10/01 12:22:09;;;;;;;0.95;0.40;;;20.40;55.80;;;;;;4952217;28;88109;-77
2021/10/01 12:24:53;;;;;;;1.63;0.60;;;20.40;55.80;;;;;;4952435;28;88315;-71
2021/10/01 12:27:40;;;;;;;4.05;0.68;;;20.40;55.90;;;;;;4950926;28;87554;-75
2021/10/01 12:30:11;;;;;;;1.52;0.63;;;20.40;55.90;;;;;;4951961;28;87838;-78
2021/10/01 12:32:37;;;;;;;4.53;0.80;;;20.40;55.90;;;;;;4949740;28;87098;-76
2021/10/01 12:35:05;;;;;;;3.58;0.75;;;20.40;55.90;;;;;;4948669;28;88863;-76
2021/10/01 12:37:39;;;;;;;3.00;0.40;;;20.40;55.90;;;;;;4950927;28;89080;-76
2021/10/01 12:40:05;;;;;;;4.22;0.60;;;20.40;55.80;;;;;;4949295;28;87178;-73
2021/10/01 12:42:36;;;;;;;2.88;0.60;;;20.40;55.80;;;;;;4951062;28;88223;-78
2021/10/01 12:45:05;;;;;;;2.58;0.50;;;20.50;56.30;;;;;;4948951;28;88017;-77
2021/10/01 12:47:35;;;;;;;1.13;0.40;;;20.40;55.70;;;;;;4950271;28;88251;-75
2021/10/01 12:50:35;;;;;;;2.85;0.60;;;20.40;55.60;;;;;;4944523;28;88387;-76
2021/10/01 12:53:03;;;;;;;1.17;0.40;;;20.40;55.60;;;;;;4939087;28;86957;-77
2021/10/01 12:55:31;;;;;;;0.70;0.40;;;20.50;55.60;;;;;;4953009;28;88597;-78
2021/10/01 12:57:57;;;;;;;3.30;0.90;;;20.40;55.40;;;;;;4952709;28;87381;-78
2021/10/01 13:00:28;;;;;;;3.08;0.57;;;20.40;55.40;;;;;;4953028;28;88421;-75
2021/10/01 13:03:01;;;;;;;1.58;0.40;;;20.40;55.30;;;;;;4952487;28;88072;-75
2021/10/01 13:05:40;;;;;;;2.70;0.45;;;20.40;55.30;;;;;;4951689;28;87661;-78
2021/10/01 13:08:07;;;;;;;2.05;0.52;;;20.50;55.30;;;;;;4951361;28;87346;-78
2021/10/01 13:10:40;;;;;;;1.45;0.55;;;20.50;55.30;;;;;;4950557;28;87440;-78
2021/10/01 13:13:15;;;;;;;;;;;20.50;55.20;;;;;;4952529;28;87633;-79
2021/10/01 13:15:48;;;;;;;1.65;0.60;;;20.50;55.30;;;;;;4953551;28;87717;-77
2021/10/01 13:18:23;;;;;;;3.15;0.50;;;20.50;55.10;;;;;;4953246;28;87514;-77
2021/10/01 13:21:09;;;;;;;2.38;0.60;;;20.50;55.10;;;;;;4952635;28;87617;-74
2021/10/01 13:23:42;;;;;;;1.63;0.40;;;20.50;54.90;;;;;;4951738;28;87871;-78
2021/10/01 13:26:26;;;;;;;2.60;0.80;;;20.50;54.90;;;;;;4951937;28;88828;-76
2021/10/01 13:29:12;;;;;;;2.50;0.70;;;20.50;54.90;;;;;;4953353;28;89512;-76
2021/10/01 13:31:42;;;;;;;2.08;0.52;;;20.50;54.90;;;;;;4953770;28;88121;-74
2021/10/01 13:34:08;;;;;;;2.47;0.47;;;20.50;54.80;;;;;;4945637;28;87945;-79
2021/10/01 13:36:34;;;;;;;2.63;0.52;;;20.50;55.00;;;;;;4944678;28;88665;-81
2021/10/01 13:39:00;;;;;;;3.15;0.82;;;20.50;55.00;;;;;;4940968;28;89780;-78
2021/10/01 13:41:26;;;;;;;1.20;0.50;;;20.50;55.00;;;;;;4954942;28;88297;-75
2021/10/01 13:43:52;;;;;;;2.83;0.75;;;20.50;55.00;;;;;;4954659;28;87339;-80
2021/10/01 13:46:20;;;;;;;2.15;0.50;;;20.50;54.90;;;;;;4953428;28;88381;-75
2021/10/01 13:48:47;;;;;;;1.65;0.43;;;20.50;54.90;;;;;;4954175;28;87603;-78
2021/10/01 13:51:13;;;;;;;0.85;0.43;;;20.50;54.90;;;;;;4952799;28;88769;-80
2021/10/01 13:53:39;;;;;;;1.25;0.40;;;20.50;54.80;;;;;;4941725;28;87766;-78
2021/10/01 13:56:05;;;;;;;2.28;0.80;;;20.50;54.80;;;;;;4950485;28;88117;-72
2021/10/01 13:58:31;;;;;;;2.53;0.60;;;20.50;54.80;;;;;;4948839;28;87340;-80
2021/10/01 14:00:57;;;;;;;3.38;0.70;;;20.50;54.80;;;;;;4949506;28;88168;-77
2021/10/01 14:03:24;;;;;;;3.63;0.90;;;20.50;54.70;;;;;;4950898;28;87907;-81
2021/10/01 14:05:50;;;;;;;2.80;0.60;;;20.50;55.20;;;;;;4951374;28;87689;-80
2021/10/01 14:08:17;;;;;;;1.98;0.68;;;20.50;54.70;;;;;;4951269;28;87397;-79
2021/10/01 14:10:43;;;;;;;3.28;0.90;;;20.60;54.70;;;;;;4950817;28;87356;-79
2021/10/01 14:13:11;;;;;;;7.30;1.83;;;20.60;54.70;;;;;;4951422;28;88291;-76
2021/10/01 14:15:42;;;;;;;6.35;1.65;;;20.70;55.10;;;;;;4938790;28;91743;-79
2021/10/01 14:18:08;;;;;;;5.22;1.35;;;20.80;55.20;;;;;;4949270;28;88528;-74
2021/10/01 14:20:36;;;;;;;6.20;1.70;;;20.90;55.00;;;;;;4949130;28;88264;-80
2021/10/01 14:23:02;;;;;;;9.35;1.50;;;21.10;55.10;;;;;;4951282;28;87826;-80